Aktualne dane pomiarowe

Uwaga, wersja testowa! Automatyczne pobieranie danych za pomocą narzędzi lub skryptów to umożliwiających jest zabronione.

Dane meteo z obszaru Polski uzyskane na podstawie depesz SYNOP pobieranych co godzinę z NWS. Najedź myszką na symbol przedstawiony w tabeli, aby uzyskać informacje co do jego znaczenia. Prosimy pamiętać, że to testowa wersja strony, która jeszcze nie jest ukończona. Stworzono również jest krótki FAQ dotyczący korzystania z tej podstrony Anomalie temperatury w chwili obecnej odniesione są do okresu referencyjnego 1951-2016. Okres ten będzie później zmieniony na 1981-2010. Kliknij ikonę aby pobrać plik CSV. Kliknij ikonę aby wygenerować mapę synoptyczną dla danego terminu.

Wybierz Datę:    

        

Świdwin (12212)

Dane terminowe dla wybranej stacji. Kliknij datę, aby otrzymać dane z tego terminu dla wszystkich stacji.

TemperaturaZachmurzenieWiatrCiśnienieOpadyPogoda
 Data t td wb tx tn tg rh  Nt Nl Cl Cm Ch ws wd g1 g2 wx mslp ppp ch 24h 12h t ww ww w1 w2  
2019-08-08 23:00:00 14.3 13.4 13.6--- 9410.0wx-wx3wx---1010.7 996.5 0.4---------
2019-08-08 22:00:00 14.0 13.1 13.3--- 9410.0wx-wx3wx---1010.6 996.4 0.6---------
2019-08-08 21:00:00 14.1 13.2 13.4--- 9410.0wx-wx3wx---1010.3 996.1 0.8---------
2019-08-08 20:00:00 14.1 13.0 13.3--- 9310.0wx-wx1wx---1010.3 996.1 0.7---------
2019-08-08 19:00:00 14.6 13.2 13.6--- 9110.0wx-wx1wx---1010.0 995.8 0.8---------
2019-08-08 18:00:00 16.0 13.8 14.5--- 8710.0wx-wx2----1009.4 995.3 1.2---------
2019-08-08 17:00:00 16.1 13.4 14.2--- 8410.0wxwxwx2----1009.5 995.4 0.9---wx-w1w2--
2019-08-08 16:00:00 19.0 12.3 14.8--- 6510.0wxwxwx12wx17--1009.0 995.0 0.1---wx---
2019-08-08 15:00:00 22.9 14.7 17.6--- 6010.0wxwxwx3----1007.9 994.1 -0.7---------
2019-08-08 14:00:00 20.6 15.4 17.1--- 7210.0wxwxwx2----1008.4 994.5 -0.5---wx-w1w2--
2019-08-08 13:00:00 17.6 12.3 14.2--- 716.0wxwxwx3----1008.9 994.9 0.1---wx-w1--
2019-08-08 12:00:00 23.3 12.3 16.5--- 5010.0wxwxwx4----1008.6 994.8 0.0---------
2019-08-08 11:00:00 22.7 11.8 16.1--- 5010.0wxwxwx5wx---1008.8 995.0 0.5---------
2019-08-08 10:00:00 21.3 13.0 16.1--- 5910.0wxwxwx6wx---1008.7 994.8 0.6---------
2019-08-08 09:00:00 20.9 13.4 16.1--- 6210.0wxwxwx6wx---1008.7 994.8 1.0---------
2019-08-08 08:00:00 20.0 13.9 16.0--- 6810.0wxwxwx6wx---1008.5 994.6 1.1---------
2019-08-08 07:00:00 18.7 15.6 16.5--- 8210.0wxwxwx6wx---1008.2 994.2 1.0---------
2019-08-08 06:00:00 17.2 16.2 16.5--- 9410.0wx-4wx---1007.8 993.8 1.1---------
2019-08-08 05:00:00 15.5 14.9 15.0--- 9610.0wx-3wx---1007.6 993.5 1.2---------
2019-08-08 04:00:00 14.8 14.2 14.3--- 9610.0wx-3wx---1007.3 993.2 1.2---------
2019-08-08 03:00:00 15.3 14.8 14.9--- 9717.0wx-4wx---1006.8 992.7 1.1---------
2019-08-08 02:00:00 16.4 15.9 16.0--- 9710.0wx-4wx---1006.3 992.3 0.8---------
2019-08-08 01:00:00 16.8 16.3 16.4--- 9710.0wxwxwx4wx---1006.0 992.0 0.9---------
2019-08-08 00:00:00 16.9 16.4 16.5--- 9710.0wxwxwx4wx---1005.6 991.6 0.7---------
2019-08-07 23:00:00 17.1 16.5 16.6--- 9610.0wxwxwx3wx---1005.5 991.5 0.7---------
2019-08-07 22:00:00 16.8 16.0 16.2--- 9510.0wxwxwx1----1005.1 991.1 0.1---------
2019-08-07 21:00:00 16.9 15.9 16.2--- 9410.0wx-wx2wx---1004.9 990.9 0.3---------
2019-08-07 20:00:00 17.2 15.9 16.3--- 9210.0wx-wx2----1004.8 990.8 -0.2---------
2019-08-07 19:00:00 17.8 16.0 16.5--- 8910.0wx-wx2----1005.0 991.0 -0.5---------
2019-08-07 18:00:00 18.3 15.7 16.5--- 8510.0wx-wx1----1004.5 990.6 -0.5---------
2019-08-07 17:00:00 19.1 16.0 16.9--- 8210.0wx-wx2----1004.9 991.0 0.1---------
2019-08-07 16:00:00 20.2 16.8 17.8--- 8110.0wxwxwxwx2----1005.3 991.5 -0.4---------
2019-08-07 15:00:00 21.4 15.7 17.6--- 708.0wxwxwxwx2wx---1004.9 991.1 -1.2---wx-w1w2--
2019-08-07 14:00:00 22.8 13.9 17.1--- 5710.0wxwxwxwx1----1004.6 990.9 -1.9---------
2019-08-07 13:00:00 23.5 12.5 16.7--- 5010.0wxwxwxwx2wx---1005.6 991.9 -1.0---------
2019-08-07 12:00:00 22.9 13.7 17.1--- 5610.0wxwxwxwxwx3wx---1006.0 992.3 -0.7---------
2019-08-07 11:00:00 21.9 14.1 16.9--- 6110.0wxwxwxwx3wx---1006.6 992.8 -0.3---------
2019-08-07 10:00:00 22.2 15.1 17.6--- 6410.0wxwxwxwx2wx---1006.7 992.9 -0.2---------
2019-08-07 09:00:00 21.9 16.4 18.2--- 7110.0wxwxwxwx2wx---1006.8 993.0 -0.2---------
2019-08-07 08:00:00 20.1 19.9 20.0--- 9910.0wxwxwxwx3wx---1007.0 993.1 0.0---------
2019-08-07 07:00:00 19.2 19.2 19.2--- 10010.0wx-wx3wx---1007.0 993.1 0.2---------
2019-08-07 06:00:00 17.3 17.3 17.3--- 10010.0wx-wx1----1007.2 993.2 0.0---------
2019-08-07 05:00:00 15.5 15.5 15.5--- 1008.0wx-wx1----1007.2 993.1 -0.5---wx---
2019-08-07 04:00:00 14.4 14.2 14.2--- 995.0wx-wx1----1007.2 993.0 -0.8---wx-w2--
2019-08-07 03:00:00 14.3 14.1 14.1--- 990.5wxwxwx1----1007.4 993.2 -0.7---wx-w1w2--
2019-08-07 02:00:00 14.7 14.4 14.5--- 980.5wxwxwx1----1007.8 993.6 -0.5---wx-w1w2--
2019-08-07 01:00:00 15.4 15.1 15.2--- 980.5wxwxwx1----1007.9 993.8 -0.3---wx-w1w2--
2019-08-07 00:00:00 15.4 14.9 15.0--- 970.8wxwxwx1----1008.0 993.9 -0.2---wx-w1w2--
11.4 ms

 

Print Friendly, PDF & Email